createdAt,value
2023-05-09T00:00:35.633Z,51.212082
2023-05-09T00:01:35.627Z,51.212265
2023-05-09T00:02:35.765Z,51.212257
2023-05-09T00:03:35.624Z,51.212147
2023-05-09T00:04:35.732Z,51.212193
2023-05-09T00:05:35.652Z,51.212097
2023-05-09T00:06:35.594Z,51.212017
2023-05-09T00:07:36.589Z,51.212166
2023-05-09T00:08:35.602Z,51.212208
2023-05-09T00:09:35.587Z,51.212143
2023-05-09T00:10:35.578Z,51.212086
2023-05-09T00:11:35.566Z,51.212009
2023-05-09T00:12:35.569Z,51.212185
2023-05-09T00:13:35.557Z,51.212208
2023-05-09T00:14:35.584Z,51.212200
2023-05-09T00:15:35.549Z,51.212135
2023-05-09T00:16:35.558Z,51.212151
2023-05-09T00:17:35.554Z,51.212139
2023-05-09T00:18:35.526Z,51.212257
2023-05-09T00:19:35.570Z,51.212193
2023-05-09T00:20:35.624Z,51.212173
2023-05-09T00:21:35.514Z,51.212215
2023-05-09T00:22:35.507Z,51.212467
2023-05-09T00:23:35.574Z,51.212189
2023-05-09T00:24:35.526Z,51.212101
2023-05-09T00:25:35.526Z,51.212067
2023-05-09T00:26:35.552Z,51.212112
2023-05-09T00:27:35.461Z,51.211948
2023-05-09T00:28:35.485Z,51.212055
2023-05-09T00:29:35.496Z,51.212097
2023-05-09T00:30:35.470Z,51.212208
2023-05-09T00:31:35.480Z,51.212162
2023-05-09T00:32:36.451Z,51.212132
2023-05-09T00:33:35.443Z,51.211971
2023-05-09T00:34:35.460Z,51.212006
2023-05-09T00:35:35.407Z,51.212009
2023-05-09T00:36:35.591Z,51.212090
2023-05-09T00:37:35.452Z,51.212051
2023-05-09T00:38:35.385Z,51.212097
2023-05-09T00:39:35.376Z,51.211994
2023-05-09T00:40:35.416Z,51.212036
2023-05-09T00:41:35.367Z,51.212097
2023-05-09T00:42:35.384Z,51.212044
2023-05-09T00:43:35.349Z,51.212105
2023-05-09T00:44:35.350Z,51.212059
2023-05-09T00:45:35.375Z,51.212116
2023-05-09T00:46:35.414Z,51.212067
2023-05-09T00:47:35.381Z,51.211922
2023-05-09T00:48:35.338Z,51.211983
2023-05-09T00:49:35.336Z,51.212074
2023-05-09T00:50:35.326Z,51.211792
2023-05-09T00:51:35.311Z,51.212040
2023-05-09T00:52:35.414Z,51.211979
2023-05-09T00:53:35.314Z,51.211998
2023-05-09T00:54:35.283Z,51.212170
2023-05-09T00:55:35.288Z,51.212204
2023-05-09T00:56:35.285Z,51.212074
2023-05-09T00:57:35.266Z,51.212086
2023-05-09T00:58:35.263Z,51.212025
2023-05-09T00:59:35.268Z,51.212017
2023-05-09T01:00:35.250Z,51.211979
2023-05-09T01:01:35.306Z,51.212132
2023-05-09T01:02:36.317Z,51.212128
2023-05-09T01:03:35.403Z,51.212082
2023-05-09T01:04:35.261Z,51.212074
2023-05-09T01:05:35.212Z,51.212173
2023-05-09T01:06:35.219Z,51.212059
2023-05-09T01:07:35.191Z,51.212093
2023-05-09T01:08:35.301Z,51.212093
2023-05-09T01:09:35.189Z,51.212040
2023-05-09T01:10:35.182Z,51.212059
2023-05-09T01:11:35.191Z,51.212070
2023-05-09T01:12:35.359Z,51.212170
2023-05-09T01:13:35.176Z,51.212158
2023-05-09T01:14:35.169Z,51.212040
2023-05-09T01:15:35.172Z,51.211983
2023-05-09T01:16:35.158Z,51.212036
2023-05-09T01:17:35.223Z,51.212040
2023-05-09T01:18:35.147Z,51.212170
2023-05-09T01:19:35.151Z,51.212112
2023-05-09T01:20:35.121Z,51.211979
2023-05-09T01:21:35.118Z,51.211872
2023-05-09T01:22:35.134Z,51.211838
2023-05-09T01:23:35.107Z,51.211853
2023-05-09T01:24:35.235Z,51.211849
2023-05-09T01:25:35.127Z,51.211918
2023-05-09T01:26:35.083Z,51.211872
2023-05-09T01:27:35.107Z,51.211880
2023-05-09T01:28:35.071Z,51.211891
2023-05-09T01:29:35.071Z,51.211693
2023-05-09T01:30:35.108Z,51.211868
2023-05-09T01:31:35.063Z,51.211975
2023-05-09T01:32:35.093Z,51.211987
2023-05-09T01:33:35.031Z,51.212292
2023-05-09T01:34:35.042Z,51.212231
2023-05-09T01:35:35.037Z,51.212170
2023-05-09T01:36:35.031Z,51.212048
2023-05-09T01:37:35.033Z,51.212128
2023-05-09T01:38:34.988Z,51.212200
2023-05-09T01:39:36.019Z,51.212189
2023-05-09T01:40:35.078Z,51.212151
2023-05-09T01:41:34.976Z,51.212162
2023-05-09T01:42:34.977Z,51.212189
2023-05-09T01:43:35.003Z,51.212166
2023-05-09T01:44:34.958Z,51.212116
2023-05-09T01:45:34.958Z,51.212116
2023-05-09T01:46:34.997Z,51.212105
2023-05-09T01:47:34.977Z,51.212170
2023-05-09T01:48:34.932Z,51.212132
2023-05-09T01:49:34.922Z,51.212128
2023-05-09T01:50:34.964Z,51.212105
2023-05-09T01:51:34.926Z,51.212128
2023-05-09T01:52:34.909Z,51.212063
2023-05-09T01:53:34.917Z,51.212120
2023-05-09T01:54:34.873Z,51.212147
2023-05-09T01:55:34.927Z,51.212112
2023-05-09T01:56:34.961Z,51.212185
2023-05-09T01:57:34.875Z,51.212097
2023-05-09T01:58:34.845Z,51.212036
2023-05-09T01:59:34.837Z,51.212082
2023-05-09T02:00:34.897Z,51.211910
2023-05-09T02:01:34.886Z,51.211998
2023-05-09T02:02:34.907Z,51.212063
2023-05-09T02:03:34.830Z,51.212036
2023-05-09T02:04:34.833Z,51.212139
2023-05-09T02:05:34.832Z,51.212158
2023-05-09T02:06:34.828Z,51.212193
2023-05-09T02:07:34.796Z,51.212208
2023-05-09T02:08:34.829Z,51.212189
2023-05-09T02:09:35.771Z,51.212067
2023-05-09T02:10:34.776Z,51.212124
2023-05-09T02:11:34.770Z,51.212158
2023-05-09T02:12:34.853Z,51.212143
2023-05-09T02:13:34.740Z,51.212143
2023-05-09T02:14:34.751Z,51.212154
2023-05-09T02:15:34.779Z,51.212135
2023-05-09T02:16:34.765Z,51.212204
2023-05-09T02:17:34.772Z,51.212379
2023-05-09T02:18:34.738Z,51.212345
2023-05-09T02:19:34.706Z,51.212193
2023-05-09T02:20:34.715Z,51.212132
2023-05-09T02:21:34.703Z,51.212112
2023-05-09T02:22:34.710Z,51.211990
2023-05-09T02:23:34.678Z,51.212048
2023-05-09T02:24:34.668Z,51.212200
2023-05-09T02:25:34.673Z,51.212265
2023-05-09T02:26:34.688Z,51.212299
2023-05-09T02:27:35.288Z,51.212223
2023-05-09T02:28:34.752Z,51.212227
2023-05-09T02:29:34.670Z,51.212074
2023-05-09T02:30:34.628Z,51.212082
2023-05-09T02:31:34.686Z,51.212124
2023-05-09T02:32:34.814Z,51.212223
2023-05-09T02:33:34.635Z,51.212082
2023-05-09T02:34:34.613Z,51.212074
2023-05-09T02:35:34.597Z,51.212025
2023-05-09T02:36:35.721Z,51.212219
2023-05-09T02:37:34.646Z,51.212288
2023-05-09T02:38:34.700Z,51.212196
2023-05-09T02:39:34.575Z,51.212105
2023-05-09T02:40:34.571Z,51.212006
2023-05-09T02:41:34.601Z,51.212009
2023-05-09T02:42:34.554Z,51.212147
2023-05-09T02:43:34.747Z,51.212029
2023-05-09T02:44:34.633Z,51.212063
2023-05-09T02:45:34.532Z,51.211891
2023-05-09T02:46:34.570Z,51.212105
2023-05-09T02:47:34.594Z,51.212257
2023-05-09T02:48:34.545Z,51.212276
2023-05-09T02:49:34.511Z,51.212246
2023-05-09T02:50:34.505Z,51.212360
2023-05-09T02:51:34.510Z,51.212215
2023-05-09T02:52:34.553Z,51.212139
2023-05-09T02:53:34.472Z,51.212296
2023-05-09T02:54:34.473Z,51.212337
2023-05-09T02:55:34.505Z,51.212315
2023-05-09T02:56:34.457Z,51.212284
2023-05-09T02:57:34.464Z,51.212151
2023-05-09T02:58:34.778Z,51.212143
2023-05-09T02:59:34.459Z,51.212173
2023-05-09T03:00:34.520Z,51.212250
2023-05-09T03:01:34.511Z,51.212193
2023-05-09T03:02:34.581Z,51.212219
2023-05-09T03:03:34.821Z,51.212437
2023-05-09T03:04:34.428Z,51.212341
2023-05-09T03:05:34.420Z,51.212227
2023-05-09T03:06:34.414Z,51.212204
2023-05-09T03:07:34.404Z,51.212254
2023-05-09T03:08:34.594Z,51.212215
2023-05-09T03:09:34.414Z,51.212261
2023-05-09T03:10:34.417Z,51.212200
2023-05-09T03:11:34.354Z,51.212250
2023-05-09T03:12:34.360Z,51.212399
2023-05-09T03:13:34.615Z,51.212292
2023-05-09T03:14:34.362Z,51.212261
2023-05-09T03:15:34.379Z,51.212132
2023-05-09T03:16:34.448Z,51.212200
2023-05-09T03:17:34.333Z,51.212185
2023-05-09T03:18:34.347Z,51.212250
2023-05-09T03:19:34.316Z,51.212425
2023-05-09T03:20:34.295Z,51.212364
2023-05-09T03:21:34.311Z,51.211884
2023-05-09T03:22:34.332Z,51.212006
2023-05-09T03:23:34.340Z,51.212074
2023-05-09T03:24:34.267Z,51.212109
2023-05-09T03:25:34.275Z,51.212048
2023-05-09T03:26:34.298Z,51.212067
2023-05-09T03:27:34.298Z,51.212055
2023-05-09T03:28:34.256Z,51.211933
2023-05-09T03:29:34.281Z,51.211956
2023-05-09T03:30:34.264Z,51.211910
2023-05-09T03:31:34.303Z,51.212025
2023-05-09T03:32:34.399Z,51.212051
2023-05-09T03:33:34.232Z,51.212009
2023-05-09T03:34:34.211Z,51.212021
2023-05-09T03:35:34.246Z,51.212124
2023-05-09T03:36:34.207Z,51.211967
2023-05-09T03:37:34.199Z,51.212006
2023-05-09T03:38:34.202Z,51.212097
2023-05-09T03:39:34.189Z,51.212128
2023-05-09T03:40:34.184Z,51.212032
2023-05-09T03:41:34.175Z,51.212036
2023-05-09T03:42:34.171Z,51.211864
2023-05-09T03:43:34.155Z,51.212036
2023-05-09T03:44:34.141Z,51.212109
2023-05-09T03:45:34.133Z,51.212128
2023-05-09T03:46:34.204Z,51.212196
2023-05-09T03:47:35.145Z,51.212173
2023-05-09T03:48:34.207Z,51.212002
2023-05-09T03:49:34.119Z,51.212090
2023-05-09T03:50:34.092Z,51.212078
2023-05-09T03:51:34.157Z,51.212017
2023-05-09T03:52:34.099Z,51.212078
2023-05-09T03:53:34.097Z,51.212116
2023-05-09T03:54:34.085Z,51.212143
2023-05-09T03:55:34.080Z,51.212227
2023-05-09T03:56:34.083Z,51.212158
2023-05-09T03:57:34.055Z,51.212090
2023-05-09T03:58:34.069Z,51.212151
2023-05-09T03:59:34.708Z,51.212196
2023-05-09T04:00:34.058Z,51.212185
2023-05-09T04:02:06.511Z,51.212120
2023-05-09T04:02:34.175Z,51.212093
2023-05-09T04:03:34.134Z,51.212124
2023-05-09T04:04:34.125Z,51.212173
2023-05-09T04:05:34.006Z,51.212204
2023-05-09T04:06:33.978Z,51.212074
2023-05-09T04:07:35.059Z,51.212070
2023-05-09T04:08:33.980Z,51.212170
2023-05-09T04:09:33.978Z,51.212177
2023-05-09T04:10:33.998Z,51.212189
2023-05-09T04:11:33.965Z,51.212189
2023-05-09T04:12:34.006Z,51.212257
2023-05-09T04:13:33.962Z,51.212185
2023-05-09T04:14:33.939Z,51.212135
2023-05-09T04:15:33.963Z,51.212109
2023-05-09T04:16:33.957Z,51.212158
2023-05-09T04:17:33.979Z,51.212151
2023-05-09T04:18:33.958Z,51.212112
2023-05-09T04:19:33.938Z,51.212063
2023-05-09T04:20:34.010Z,51.212132
2023-05-09T04:21:34.011Z,51.212093
2023-05-09T04:22:33.950Z,51.212116
2023-05-09T04:23:33.973Z,51.212109
2023-05-09T04:24:33.928Z,51.212143
2023-05-09T04:25:33.894Z,51.212086
2023-05-09T04:26:33.875Z,51.212135
2023-05-09T04:27:33.915Z,51.212154
2023-05-09T04:28:33.947Z,51.212132
2023-05-09T04:29:34.975Z,51.212105
2023-05-09T04:30:33.881Z,51.212078
2023-05-09T04:31:33.924Z,51.212063
2023-05-09T04:32:33.932Z,51.211983
2023-05-09T04:33:34.158Z,51.211983
2023-05-09T04:34:33.857Z,51.212025
2023-05-09T04:35:33.835Z,51.211945
2023-05-09T04:36:33.997Z,51.211990
2023-05-09T04:37:33.834Z,51.212063
2023-05-09T04:38:33.803Z,51.212036
2023-05-09T04:39:33.824Z,51.212109
2023-05-09T04:40:33.804Z,51.212063
2023-05-09T04:41:33.797Z,51.212029
2023-05-09T04:42:33.800Z,51.212021
2023-05-09T04:43:33.777Z,51.212040
2023-05-09T04:44:33.763Z,51.212105
2023-05-09T04:45:33.788Z,51.212116
2023-05-09T04:46:33.802Z,51.212265
2023-05-09T04:47:33.803Z,51.212173
2023-05-09T04:48:33.885Z,51.212128
2023-05-09T04:49:33.731Z,51.212132
2023-05-09T04:50:33.730Z,51.212170
2023-05-09T04:51:33.714Z,51.212158
2023-05-09T04:52:33.924Z,51.212158
2023-05-09T04:53:33.751Z,51.212040
2023-05-09T04:54:33.723Z,51.212227
2023-05-09T04:55:33.710Z,51.212280
2023-05-09T04:56:33.714Z,51.212238
2023-05-09T04:57:33.804Z,51.212044
2023-05-09T04:58:33.740Z,51.211971
2023-05-09T04:59:33.730Z,51.212116
2023-05-09T05:00:33.646Z,51.212162
2023-05-09T05:01:33.675Z,51.212116
2023-05-09T05:02:33.686Z,51.212078
2023-05-09T05:03:33.708Z,51.212158
2023-05-09T05:04:33.725Z,51.212132
2023-05-09T05:05:35.258Z,51.212021
2023-05-09T05:06:35.388Z,51.212044
2023-05-09T05:07:33.628Z,51.212013
2023-05-09T05:08:33.754Z,51.212070
2023-05-09T05:09:33.607Z,51.212063
2023-05-09T05:10:33.646Z,51.212147
2023-05-09T05:11:33.620Z,51.212101
2023-05-09T05:12:33.609Z,51.212090
2023-05-09T05:13:33.601Z,51.212109
2023-05-09T05:14:33.597Z,51.212086
2023-05-09T05:15:33.564Z,51.211998
2023-05-09T05:16:33.645Z,51.212067
2023-05-09T05:17:33.589Z,51.211838
2023-05-09T05:18:33.551Z,51.211926
2023-05-09T05:19:33.527Z,51.212009
2023-05-09T05:20:33.540Z,51.211975
2023-05-09T05:21:33.539Z,51.212074
2023-05-09T05:22:33.525Z,51.211922
2023-05-09T05:24:06.854Z,51.211857
2023-05-09T05:25:06.015Z,51.211864
2023-05-09T05:26:06.010Z,51.211491
2023-05-09T05:27:07.206Z,51.211979
2023-05-09T05:28:06.107Z,51.211845
2023-05-09T05:28:33.523Z,51.211777
2023-05-09T05:30:06.954Z,51.211670
2023-05-09T05:30:34.525Z,51.211823
2023-05-09T05:31:34.512Z,51.211773
2023-05-09T05:32:33.493Z,51.211876
2023-05-09T05:33:33.453Z,51.211994
2023-05-09T05:35:07.110Z,51.212051
2023-05-09T05:35:33.467Z,51.211960
2023-05-09T05:36:33.482Z,51.212097
2023-05-09T05:37:33.590Z,51.211899
2023-05-09T05:38:33.428Z,51.212074
2023-05-09T05:39:33.509Z,51.211899
2023-05-09T05:40:33.424Z,51.211754
2023-05-09T05:41:33.520Z,51.211838
2023-05-09T05:42:33.409Z,51.212036
2023-05-09T05:43:33.397Z,51.212078
2023-05-09T05:44:33.365Z,51.211586
2023-05-09T05:45:33.993Z,51.211765
2023-05-09T05:46:33.372Z,51.211601
2023-05-09T05:47:33.423Z,51.211796
2023-05-09T05:48:33.383Z,51.212055
2023-05-09T05:49:33.371Z,51.212036
2023-05-09T05:50:33.337Z,51.212147
2023-05-09T05:51:33.344Z,51.211933
2023-05-09T05:52:33.316Z,51.211876
2023-05-09T05:53:33.594Z,51.211967
2023-05-09T05:54:33.358Z,51.211887
2023-05-09T05:55:33.391Z,51.211819
2023-05-09T05:56:33.286Z,51.211929
2023-05-09T05:57:33.305Z,51.211830
2023-05-09T05:58:33.282Z,51.211990
2023-05-09T05:59:33.294Z,51.212040
2023-05-09T06:00:33.289Z,51.212208
2023-05-09T06:01:33.266Z,51.211979
2023-05-09T06:02:33.535Z,51.212112
2023-05-09T06:03:33.404Z,51.212112
2023-05-09T06:04:33.261Z,51.212128
2023-05-09T06:05:33.270Z,51.212223
2023-05-09T06:06:33.238Z,51.212234
2023-05-09T06:07:33.327Z,51.212208
2023-05-09T06:09:05.715Z,51.212257
2023-05-09T06:09:33.239Z,51.212242
2023-05-09T06:10:33.226Z,51.212151
2023-05-09T06:11:33.303Z,51.212029
2023-05-09T06:12:33.258Z,51.211975
2023-05-09T06:13:33.206Z,51.212078
2023-05-09T06:14:33.203Z,51.211872
2023-05-09T06:15:33.178Z,51.211945
2023-05-09T06:16:33.221Z,51.212063
2023-05-09T06:17:33.186Z,51.211937
2023-05-09T06:18:33.171Z,51.211823
2023-05-09T06:19:33.206Z,51.211987
2023-05-09T06:20:33.168Z,51.212128
2023-05-09T06:21:33.136Z,51.211967
2023-05-09T06:22:33.149Z,51.212090
2023-05-09T06:23:33.214Z,51.212070
2023-05-09T06:24:36.283Z,51.212181
2023-05-09T06:25:34.141Z,51.212070
2023-05-09T06:26:33.153Z,51.212067
2023-05-09T06:27:33.199Z,51.212040
2023-05-09T06:28:33.146Z,51.212029
2023-05-09T06:29:33.167Z,51.211990
2023-05-09T06:30:33.108Z,51.211952
2023-05-09T06:31:33.134Z,51.212063
2023-05-09T06:32:33.115Z,51.212154
2023-05-09T06:33:33.076Z,51.212082
2023-05-09T06:34:33.092Z,51.212112
2023-05-09T06:35:33.095Z,51.212261
2023-05-09T06:36:33.042Z,51.212158
2023-05-09T06:37:33.018Z,51.212170
2023-05-09T06:38:33.038Z,51.212143
2023-05-09T06:39:33.037Z,51.212166
2023-05-09T06:40:33.049Z,51.212238
2023-05-09T06:41:33.039Z,51.212189
2023-05-09T06:42:33.032Z,51.212189
2023-05-09T06:43:33.128Z,51.212227
2023-05-09T06:44:32.988Z,51.212185
2023-05-09T06:45:33.146Z,51.212154
2023-05-09T06:46:33.013Z,51.212139
2023-05-09T06:47:33.055Z,51.212067
2023-05-09T06:48:32.977Z,51.212067
2023-05-09T06:49:32.952Z,51.212070
2023-05-09T06:50:33.158Z,51.212048
2023-05-09T06:51:32.953Z,51.212040
2023-05-09T06:52:32.923Z,51.212074
2023-05-09T06:53:32.968Z,51.212109
2023-05-09T06:54:32.957Z,51.212154
2023-05-09T06:55:32.907Z,51.212120
2023-05-09T06:56:32.970Z,51.212181
2023-05-09T06:57:32.983Z,51.212070
2023-05-09T06:58:32.937Z,51.212067
2023-05-09T06:59:33.003Z,51.212132
2023-05-09T07:00:32.882Z,51.212112
2023-05-09T07:01:32.880Z,51.212208
2023-05-09T07:02:32.959Z,51.212170
2023-05-09T07:03:32.906Z,51.212128
2023-05-09T07:04:32.931Z,51.212215
2023-05-09T07:05:32.973Z,51.211998
2023-05-09T07:06:32.861Z,51.212051
2023-05-09T07:07:32.857Z,51.212124
2023-05-09T07:08:32.836Z,51.212082
2023-05-09T07:09:32.830Z,51.212162
2023-05-09T07:10:32.823Z,51.212128
2023-05-09T07:11:32.849Z,51.212101
2023-05-09T07:12:32.879Z,51.212196
2023-05-09T07:13:32.790Z,51.212223
2023-05-09T07:14:32.884Z,51.212173
2023-05-09T07:15:41.125Z,51.212120
2023-05-09T07:16:37.439Z,51.212261
2023-05-09T07:17:32.859Z,51.212223
2023-05-09T07:18:32.794Z,51.212250
2023-05-09T07:19:32.808Z,51.212173
2023-05-09T07:20:32.745Z,51.212059
2023-05-09T07:21:32.742Z,51.212147
2023-05-09T07:22:33.620Z,51.212212
2023-05-09T07:23:32.745Z,51.212132
2023-05-09T07:24:32.726Z,51.211979
2023-05-09T07:25:32.729Z,51.211887
2023-05-09T07:26:32.735Z,51.212116
2023-05-09T07:27:32.744Z,51.212086
2023-05-09T07:28:32.696Z,51.211987
2023-05-09T07:29:33.718Z,51.212112
2023-05-09T07:30:32.760Z,51.212154
2023-05-09T07:31:34.038Z,51.212051
2023-05-09T07:32:32.679Z,51.212036
2023-05-09T07:33:32.686Z,51.212231
2023-05-09T07:34:32.673Z,51.212273
2023-05-09T07:35:32.679Z,51.212128
2023-05-09T07:36:34.827Z,51.212017
2023-05-09T07:37:32.663Z,51.211971
2023-05-09T07:38:32.688Z,51.212242
2023-05-09T07:39:32.633Z,51.212070
2023-05-09T07:40:32.633Z,51.211811
2023-05-09T07:41:32.619Z,51.211918
2023-05-09T07:42:32.608Z,51.212078
2023-05-09T07:43:32.626Z,51.212227
2023-05-09T07:44:32.588Z,51.212097
2023-05-09T07:45:32.639Z,51.212151
2023-05-09T07:46:32.663Z,51.211948
2023-05-09T07:47:32.688Z,51.211849
2023-05-09T07:48:32.764Z,51.211872
2023-05-09T07:49:32.665Z,51.211864
2023-05-09T07:50:32.718Z,51.211956
2023-05-09T07:51:32.577Z,51.211967
2023-05-09T07:52:32.582Z,51.211971
2023-05-09T07:53:32.689Z,51.211998
2023-05-09T07:54:32.601Z,51.211964
2023-05-09T07:55:32.555Z,51.211872
2023-05-09T07:56:32.604Z,51.211761
2023-05-09T07:57:32.534Z,51.211868
2023-05-09T07:58:32.524Z,51.211834
2023-05-09T07:59:32.556Z,51.211807
2023-05-09T08:00:32.488Z,51.211842
2023-05-09T08:01:32.576Z,51.211933
2023-05-09T08:02:32.589Z,51.211891
2023-05-09T08:03:32.855Z,51.211975
2023-05-09T08:04:32.530Z,51.211926
2023-05-09T08:05:32.534Z,51.211891
2023-05-09T08:06:32.505Z,51.211864
2023-05-09T08:07:32.513Z,51.211815
2023-05-09T08:08:32.484Z,51.211803
2023-05-09T08:09:32.444Z,51.211826
2023-05-09T08:10:32.519Z,51.211807
2023-05-09T08:11:32.451Z,51.211868
2023-05-09T08:12:32.423Z,51.212036
2023-05-09T08:13:32.459Z,51.211666
2023-05-09T08:14:32.435Z,51.212116
2023-05-09T08:15:32.436Z,51.212170
2023-05-09T08:16:32.605Z,51.212284
2023-05-09T08:17:32.449Z,51.212261
2023-05-09T08:18:32.499Z,51.212044
2023-05-09T08:19:32.460Z,51.212078
2023-05-09T08:20:32.388Z,51.212021
2023-05-09T08:21:32.409Z,51.212265
2023-05-09T08:22:32.390Z,51.212250
2023-05-09T08:23:32.439Z,51.212418
2023-05-09T08:24:32.384Z,51.212448
2023-05-09T08:25:32.371Z,51.212181
2023-05-09T08:26:32.339Z,51.212032
2023-05-09T08:27:32.310Z,51.212128
2023-05-09T08:28:33.381Z,51.212257
2023-05-09T08:29:32.332Z,51.212353
2023-05-09T08:30:32.287Z,51.212288
2023-05-09T08:31:32.343Z,51.212090
2023-05-09T08:32:32.290Z,51.212265
2023-05-09T08:33:32.305Z,51.212337
2023-05-09T08:34:32.319Z,51.212276
2023-05-09T08:35:32.419Z,51.212234
2023-05-09T08:36:32.388Z,51.212158
2023-05-09T08:37:32.253Z,51.212215
2023-05-09T08:38:32.305Z,51.212265
2023-05-09T08:39:32.251Z,51.212067
2023-05-09T08:40:32.228Z,51.211979
2023-05-09T08:41:32.243Z,51.211903
2023-05-09T08:42:32.233Z,51.211975
2023-05-09T08:43:32.291Z,51.212151
2023-05-09T08:44:32.259Z,51.212051
2023-05-09T08:45:32.186Z,51.212025
2023-05-09T08:46:32.326Z,51.212124
2023-05-09T08:47:32.238Z,51.212154
2023-05-09T08:48:34.071Z,51.212254
2023-05-09T08:49:32.178Z,51.212154
2023-05-09T08:50:32.184Z,51.212093
2023-05-09T08:51:32.306Z,51.212147
2023-05-09T08:52:32.237Z,51.212097
2023-05-09T08:53:32.208Z,51.212128
2023-05-09T08:54:32.149Z,51.212059
2023-05-09T08:55:32.178Z,51.212055
2023-05-09T08:56:32.229Z,51.212063
2023-05-09T08:57:32.206Z,51.211990
2023-05-09T08:58:32.193Z,51.211964
2023-05-09T08:59:32.208Z,51.211994
2023-05-09T09:00:32.179Z,51.212067
2023-05-09T09:01:32.187Z,51.212051
2023-05-09T09:02:32.129Z,51.212090
2023-05-09T09:03:32.097Z,51.212215
2023-05-09T09:04:32.140Z,51.212200
2023-05-09T09:05:41.423Z,51.212124
2023-05-09T09:06:34.288Z,51.211960
2023-05-09T09:07:32.069Z,51.211994
2023-05-09T09:08:32.030Z,51.211994
2023-05-09T09:09:32.080Z,51.212025
2023-05-09T09:10:32.015Z,51.212116
2023-05-09T09:11:32.228Z,51.212063
2023-05-09T09:12:32.019Z,51.212013
2023-05-09T09:13:32.086Z,51.211945
2023-05-09T09:14:32.006Z,51.211998
2023-05-09T09:15:32.106Z,51.212082
2023-05-09T09:16:32.036Z,51.212154
2023-05-09T09:17:32.041Z,51.212246
2023-05-09T09:18:31.985Z,51.212189
2023-05-09T09:19:31.970Z,51.212063
2023-05-09T09:20:32.993Z,51.212040
2023-05-09T09:21:31.969Z,51.212173
2023-05-09T09:22:31.956Z,51.212093
2023-05-09T09:23:31.978Z,51.211895
2023-05-09T09:24:31.928Z,51.211884
2023-05-09T09:25:31.938Z,51.212021
2023-05-09T09:26:31.954Z,51.212055
2023-05-09T09:27:31.955Z,51.212090
2023-05-09T09:28:31.920Z,51.212124
2023-05-09T09:29:31.942Z,51.212151
2023-05-09T09:30:31.906Z,51.212219
2023-05-09T09:31:31.936Z,51.212048
2023-05-09T09:32:31.923Z,51.212124
2023-05-09T09:33:31.877Z,51.212139
2023-05-09T09:34:31.918Z,51.212120
2023-05-09T09:35:31.859Z,51.212143
2023-05-09T09:36:31.864Z,51.212059
2023-05-09T09:37:31.896Z,51.212090
2023-05-09T09:38:31.950Z,51.211926
2023-05-09T09:39:31.845Z,51.212002
2023-05-09T09:40:31.910Z,51.212135
2023-05-09T09:41:31.833Z,51.212082
2023-05-09T09:42:31.840Z,51.211994
2023-05-09T09:43:31.844Z,51.211975
2023-05-09T09:44:31.864Z,51.211926
2023-05-09T09:45:31.818Z,51.211914
2023-05-09T09:46:31.848Z,51.212292
2023-05-09T09:47:31.854Z,51.212116
2023-05-09T09:48:31.797Z,51.212120
2023-05-09T09:49:31.880Z,51.212204
2023-05-09T09:50:31.771Z,51.212177
2023-05-09T09:51:31.781Z,51.212292
2023-05-09T09:52:31.809Z,51.212345
2023-05-09T09:53:31.802Z,51.212246
2023-05-09T09:54:31.809Z,51.212284
2023-05-09T09:55:31.781Z,51.212193
2023-05-09T09:56:31.779Z,51.212242
2023-05-09T09:57:31.748Z,51.212227
2023-05-09T09:58:31.759Z,51.212112
2023-05-09T09:59:31.779Z,51.212204
2023-05-09T10:00:31.752Z,51.212185
2023-05-09T10:01:31.780Z,51.212257
2023-05-09T10:02:31.814Z,51.212242
2023-05-09T10:03:32.778Z,51.212257
2023-05-09T10:04:31.780Z,51.212093
2023-05-09T10:05:31.842Z,51.212086
2023-05-09T10:06:31.732Z,51.212212
2023-05-09T10:07:31.798Z,51.212173
2023-05-09T10:08:32.690Z,51.212093
2023-05-09T10:09:31.680Z,51.212273
2023-05-09T10:10:31.825Z,51.212173
2023-05-09T10:11:31.743Z,51.212200
2023-05-09T10:12:31.687Z,51.212181
2023-05-09T10:13:31.704Z,51.212093
2023-05-09T10:14:34.273Z,51.212109
2023-05-09T10:15:38.480Z,51.212177
2023-05-09T10:16:43.871Z,51.212128
2023-05-09T10:17:33.811Z,51.212250
2023-05-09T10:18:31.993Z,51.212334
2023-05-09T10:19:31.653Z,51.212166
2023-05-09T10:20:31.672Z,51.212105
2023-05-09T10:21:31.671Z,51.212017
2023-05-09T10:22:31.654Z,51.211979
2023-05-09T10:23:31.621Z,51.212009
2023-05-09T10:24:31.667Z,51.212082
2023-05-09T10:25:31.599Z,51.212051
2023-05-09T10:26:31.790Z,51.212051
2023-05-09T10:27:31.734Z,51.212025
2023-05-09T10:28:31.581Z,51.211983
2023-05-09T10:29:31.800Z,51.212196
2023-05-09T10:30:33.916Z,51.212036
2023-05-09T10:31:31.609Z,51.212086
2023-05-09T10:32:31.606Z,51.212029
2023-05-09T10:33:31.569Z,51.212029
2023-05-09T10:34:31.583Z,51.211994
2023-05-09T10:35:31.633Z,51.211960
2023-05-09T10:36:31.588Z,51.211979
2023-05-09T10:37:31.661Z,51.212040
2023-05-09T10:38:31.585Z,51.211937
2023-05-09T10:39:31.560Z,51.212044
2023-05-09T10:40:31.561Z,51.212173
2023-05-09T10:41:31.560Z,51.212135
2023-05-09T10:42:31.715Z,51.212124
2023-05-09T10:43:32.172Z,51.212105
2023-05-09T10:44:32.535Z,51.212093
2023-05-09T10:45:31.520Z,51.212006
2023-05-09T10:46:31.548Z,51.211979
2023-05-09T10:47:31.575Z,51.211975
2023-05-09T10:48:31.472Z,51.211929
2023-05-09T10:49:31.512Z,51.212097
2023-05-09T10:50:31.476Z,51.212265
2023-05-09T10:52:04.977Z,51.212177
2023-05-09T10:53:06.179Z,51.212097
2023-05-09T10:53:31.510Z,51.212055
2023-05-09T10:58:11.134Z,51.212070
2023-05-09T10:59:12.040Z,51.212109
2023-05-09T11:00:11.023Z,51.212063
2023-05-09T11:01:12.006Z,51.212227
2023-05-09T11:02:11.007Z,51.212158
2023-05-09T11:02:38.677Z,51.212162
2023-05-09T11:03:38.626Z,51.212059
2023-05-09T11:04:38.596Z,51.212067
2023-05-09T11:05:38.548Z,51.212124
2023-05-09T11:06:39.504Z,51.212074
2023-05-09T11:07:38.594Z,51.212009
2023-05-09T11:08:38.512Z,51.212029
2023-05-09T11:09:38.596Z,51.212116
2023-05-09T11:10:38.600Z,51.212090
2023-05-09T11:11:38.524Z,51.212067
2023-05-09T11:12:38.533Z,51.212021
2023-05-09T11:13:38.580Z,51.212128
2023-05-09T11:14:38.510Z,51.212185
2023-05-09T11:15:38.478Z,51.212074
2023-05-09T11:16:38.536Z,51.212097
2023-05-09T11:17:38.578Z,51.212040
2023-05-09T11:18:38.472Z,51.212086
2023-05-09T11:19:38.440Z,51.212093
2023-05-09T11:20:38.479Z,51.212082
2023-05-09T11:21:38.447Z,51.212074
2023-05-09T11:22:38.432Z,51.212048
2023-05-09T11:23:38.439Z,51.212029
2023-05-09T11:24:38.425Z,51.212105
2023-05-09T11:25:38.413Z,51.212074
2023-05-09T11:26:38.425Z,51.212158
2023-05-09T11:27:38.389Z,51.212029